createdAt,value
2023-02-13T00:02:10.471Z,61.10
2023-02-13T00:04:38.638Z,60.50
2023-02-13T00:07:07.404Z,60.80
2023-02-13T00:09:35.496Z,60.90
2023-02-13T00:12:05.446Z,61.30
2023-02-13T00:14:35.991Z,61.60
2023-02-13T00:17:04.750Z,61.70
2023-02-13T00:19:32.714Z,62.00
2023-02-13T00:22:01.098Z,62.10
2023-02-13T00:24:29.151Z,62.40
2023-02-13T00:26:56.809Z,62.70
2023-02-13T00:29:24.633Z,62.90
2023-02-13T00:31:55.846Z,63.10
2023-02-13T00:34:24.105Z,63.30
2023-02-13T00:36:54.694Z,63.40
2023-02-13T00:39:22.698Z,63.70
2023-02-13T00:41:50.617Z,63.90
2023-02-13T00:44:19.575Z,64.10
2023-02-13T00:46:47.149Z,64.40
2023-02-13T00:49:15.244Z,64.50
2023-02-13T00:51:42.948Z,64.70
2023-02-13T00:54:12.130Z,64.80
2023-02-13T00:56:39.608Z,65.00
2023-02-13T00:59:10.667Z,65.20
2023-02-13T01:01:38.734Z,65.60
2023-02-13T01:04:06.428Z,65.70
2023-02-13T01:06:34.040Z,65.90
2023-02-13T01:09:04.591Z,66.20
2023-02-13T01:11:33.456Z,66.50
2023-02-13T01:14:01.464Z,66.90
2023-02-13T01:16:29.065Z,67.20
2023-02-13T01:18:57.039Z,67.50
2023-02-13T01:21:26.376Z,67.70
2023-02-13T01:23:54.384Z,67.90
2023-02-13T01:26:24.424Z,68.20
2023-02-13T01:28:55.702Z,68.60
2023-02-13T01:31:23.662Z,69.00
2023-02-13T01:33:52.264Z,69.20
2023-02-13T01:36:21.670Z,69.40
2023-02-13T01:38:57.071Z,69.90
2023-02-13T01:41:26.627Z,70.10
2023-02-13T01:44:01.814Z,70.50
2023-02-13T01:46:44.378Z,70.60
2023-02-13T01:49:24.926Z,70.90
2023-02-13T01:51:56.291Z,71.10
2023-02-13T01:54:38.147Z,71.70
2023-02-13T01:57:12.046Z,71.80
2023-02-13T01:59:50.273Z,72.30
2023-02-13T02:02:19.018Z,72.50
2023-02-13T02:04:49.490Z,72.60
2023-02-13T02:07:22.534Z,72.50
2023-02-13T02:09:53.482Z,72.90
2023-02-13T02:12:34.163Z,73.10
2023-02-13T02:15:05.260Z,73.10
2023-02-13T02:17:33.226Z,73.40
2023-02-13T02:20:20.212Z,73.80
2023-02-13T02:23:13.148Z,74.30
2023-02-13T02:25:48.089Z,74.40
2023-02-13T02:28:34.653Z,74.90
2023-02-13T02:31:40.232Z,75.20
2023-02-13T02:34:10.595Z,75.60
2023-02-13T02:36:55.143Z,77.10
2023-02-13T02:39:38.962Z,76.70
2023-02-13T02:42:29.209Z,77.10
2023-02-13T02:45:17.238Z,77.60
2023-02-13T02:48:24.973Z,78.00
2023-02-13T02:50:56.677Z,78.30
2023-02-13T02:53:34.776Z,78.50
2023-02-13T02:56:24.610Z,78.80
2023-02-13T03:02:23.779Z,79.70
2023-02-13T03:05:12.697Z,79.90
2023-02-13T03:07:43.849Z,80.00
2023-02-13T03:10:36.693Z,80.30
2023-02-13T03:13:24.282Z,80.60
2023-02-13T03:16:17.748Z,81.00
2023-02-13T03:19:07.533Z,80.90
2023-02-13T03:22:18.114Z,81.20
2023-02-13T03:25:10.539Z,81.50
2023-02-13T03:28:37.698Z,81.30
2023-02-13T03:31:21.042Z,81.50
2023-02-13T03:34:01.894Z,81.80
2023-02-13T03:36:58.633Z,81.40
2023-02-13T03:39:42.177Z,81.40
2023-02-13T03:42:30.879Z,82.20
2023-02-13T03:45:23.776Z,81.30
2023-02-13T03:47:55.189Z,81.40
2023-02-13T03:50:25.002Z,81.30
2023-02-13T03:52:56.146Z,81.40
2023-02-13T03:55:46.185Z,82.20
2023-02-13T03:58:40.054Z,81.30
2023-02-13T04:01:10.665Z,81.10
2023-02-13T04:03:54.011Z,81.20
2023-02-13T04:06:25.702Z,81.20
2023-02-13T04:08:53.776Z,81.40
2023-02-13T04:11:28.425Z,81.40
2023-02-13T04:13:59.668Z,81.70
2023-02-13T04:16:37.319Z,81.90
2023-02-13T04:19:07.388Z,81.90
2023-02-13T04:21:40.789Z,82.00
2023-02-13T04:24:09.301Z,81.70
2023-02-13T04:26:44.602Z,81.50
2023-02-13T04:29:12.415Z,81.50
2023-02-13T04:31:40.965Z,81.80
2023-02-13T04:34:08.817Z,81.90
2023-02-13T04:36:36.424Z,82.20
2023-02-13T04:39:04.250Z,82.00
2023-02-13T04:41:31.698Z,82.10
2023-02-13T04:43:59.613Z,82.30
2023-02-13T04:46:28.493Z,82.80
2023-02-13T04:48:56.491Z,82.70
2023-02-13T04:51:24.092Z,82.70
2023-02-13T04:53:52.204Z,82.70
2023-02-13T04:56:22.580Z,82.70
2023-02-13T04:58:50.546Z,83.10
2023-02-13T05:01:19.010Z,83.30
2023-02-13T05:03:46.852Z,83.50
2023-02-13T05:06:14.286Z,83.90
2023-02-13T05:08:42.297Z,84.10
2023-02-13T05:11:23.540Z,84.20
2023-02-13T05:13:51.341Z,84.40
2023-02-13T05:16:19.135Z,84.50
2023-02-13T05:21:44.967Z,85.30
2023-02-13T05:24:12.516Z,85.70
2023-02-13T05:26:40.097Z,86.10
2023-02-13T05:29:20.054Z,87.10
2023-02-13T05:31:49.653Z,86.90
2023-02-13T05:34:18.149Z,87.10
2023-02-13T05:36:45.993Z,87.30
2023-02-13T05:39:13.560Z,87.40
2023-02-13T05:41:42.386Z,87.80
2023-02-13T05:44:13.939Z,88.20
2023-02-13T05:46:43.020Z,88.50
2023-02-13T05:49:12.131Z,88.80
2023-02-13T05:51:40.327Z,88.80
2023-02-13T05:54:08.396Z,89.20
2023-02-13T05:56:36.574Z,89.60
2023-02-13T05:59:04.795Z,89.70
2023-02-13T06:01:33.824Z,89.70
2023-02-13T06:04:04.257Z,90.00
2023-02-13T06:06:32.365Z,90.30
2023-02-13T06:08:59.946Z,90.40
2023-02-13T06:11:28.027Z,90.50
2023-02-13T06:13:55.981Z,90.60
2023-02-13T06:16:23.839Z,90.60
2023-02-13T06:18:52.166Z,91.00
2023-02-13T06:21:20.758Z,91.30
2023-02-13T06:23:48.830Z,91.60
2023-02-13T06:26:17.116Z,91.90
2023-02-13T06:28:45.964Z,92.10
2023-02-13T06:33:59.864Z,92.60
2023-02-13T06:36:42.863Z,92.80
2023-02-13T06:39:11.962Z,93.60
2023-02-13T06:41:40.087Z,93.30
2023-02-13T06:44:08.374Z,93.40
2023-02-13T06:46:36.065Z,93.50
2023-02-13T06:49:03.854Z,94.80
2023-02-13T06:51:32.730Z,95.10
2023-02-13T06:54:03.059Z,95.40
2023-02-13T06:56:30.545Z,95.70
2023-02-13T06:58:58.704Z,95.60
2023-02-13T07:01:26.402Z,95.70
2023-02-13T07:03:53.853Z,95.70
2023-02-13T07:08:59.104Z,95.90
2023-02-13T07:11:27.015Z,95.90
2023-02-13T07:13:54.832Z,96.00
2023-02-13T07:16:22.689Z,96.00
2023-02-13T07:18:50.494Z,96.10
2023-02-13T07:21:18.306Z,96.40
2023-02-13T07:23:46.020Z,96.90
2023-02-13T07:26:14.039Z,97.10
2023-02-13T07:28:41.797Z,97.20
2023-02-13T07:31:10.184Z,97.20
2023-02-13T07:33:38.462Z,96.80
2023-02-13T07:36:07.333Z,96.50
2023-02-13T07:38:34.897Z,96.40
2023-02-13T07:41:04.316Z,96.30
2023-02-13T07:43:31.978Z,96.60
2023-02-13T07:46:02.625Z,96.50
2023-02-13T07:48:32.034Z,97.50
2023-02-13T07:51:04.412Z,97.60
2023-02-13T07:53:37.885Z,97.80
2023-02-13T07:56:07.252Z,97.30
2023-02-13T07:58:34.612Z,97.00
2023-02-13T08:01:11.508Z,96.40
2023-02-13T08:03:39.407Z,95.90
2023-02-13T08:06:08.469Z,96.10
2023-02-13T08:08:36.465Z,96.00
2023-02-13T08:11:28.721Z,96.10
2023-02-13T08:13:56.158Z,96.00
2023-02-13T08:16:27.585Z,95.90
2023-02-13T08:18:55.049Z,96.00
2023-02-13T08:21:33.671Z,95.90
2023-02-13T08:24:02.914Z,95.70
2023-02-13T08:26:32.521Z,95.70
2023-02-13T08:29:00.554Z,95.80
2023-02-13T08:31:29.537Z,96.30
2023-02-13T08:33:57.996Z,95.80
2023-02-13T08:36:25.596Z,95.90
2023-02-13T08:39:12.814Z,95.60
2023-02-13T08:41:40.821Z,95.30
2023-02-13T08:44:08.482Z,95.20
2023-02-13T08:46:36.603Z,95.00
2023-02-13T08:49:04.692Z,95.10
2023-02-13T08:51:33.667Z,95.10
2023-02-13T08:54:01.585Z,95.00
2023-02-13T08:56:29.447Z,94.80
2023-02-13T08:58:57.071Z,94.80
2023-02-13T09:01:25.532Z,94.50
2023-02-13T09:03:54.439Z,94.40
2023-02-13T09:06:24.817Z,94.30
2023-02-13T09:08:53.189Z,93.90
2023-02-13T09:11:23.191Z,93.70
2023-02-13T09:13:55.780Z,96.00
2023-02-13T09:16:23.563Z,96.10
2023-02-13T09:18:52.065Z,95.60
2023-02-13T09:21:23.290Z,95.10
2023-02-13T09:23:51.713Z,94.70
2023-02-13T09:26:20.868Z,94.50
2023-02-13T09:28:49.127Z,94.40
2023-02-13T09:31:20.230Z,93.90
2023-02-13T09:33:49.117Z,93.60
2023-02-13T09:36:20.619Z,93.50
2023-02-13T09:38:51.099Z,93.40
2023-02-13T09:41:25.580Z,93.30
2023-02-13T09:44:03.329Z,93.20
2023-02-13T09:46:34.912Z,93.20
2023-02-13T09:49:10.613Z,92.70
2023-02-13T09:51:38.288Z,92.60
2023-02-13T09:54:08.088Z,92.70
2023-02-13T09:56:42.517Z,92.40
2023-02-13T09:59:30.467Z,91.90
2023-02-13T10:02:01.815Z,91.40
2023-02-13T10:04:40.213Z,90.90
2023-02-13T10:07:11.706Z,90.20
2023-02-13T10:09:58.344Z,90.50
2023-02-13T10:12:45.396Z,90.10
2023-02-13T10:15:32.318Z,90.20
2023-02-13T10:18:06.931Z,89.80
2023-02-13T10:20:50.771Z,89.30
2023-02-13T10:23:28.675Z,89.00
2023-02-13T10:26:00.771Z,88.30
2023-02-13T10:28:45.259Z,87.50
2023-02-13T10:31:16.138Z,87.30
2023-02-13T10:33:55.811Z,87.60
2023-02-13T10:36:29.891Z,85.80
2023-02-13T10:39:07.211Z,85.70
2023-02-13T10:41:58.142Z,85.30
2023-02-13T10:44:35.509Z,83.80
2023-02-13T10:47:36.465Z,84.30
2023-02-13T10:50:17.302Z,84.40
2023-02-13T10:53:03.685Z,84.00
2023-02-13T10:55:35.015Z,84.10
2023-02-13T10:58:21.285Z,84.40
2023-02-13T11:01:11.999Z,84.40
2023-02-13T11:03:39.668Z,83.00
2023-02-13T11:06:09.615Z,83.40
2023-02-13T11:08:44.204Z,84.00
2023-02-13T11:11:33.270Z,84.00
2023-02-13T11:14:21.419Z,84.20
2023-02-13T11:16:59.032Z,85.70
2023-02-13T11:19:42.694Z,85.60
2023-02-13T11:22:20.521Z,85.60
2023-02-13T11:25:00.249Z,84.90
2023-02-13T11:27:36.724Z,83.30
2023-02-13T11:30:26.407Z,83.80
2023-02-13T11:33:00.558Z,83.70
2023-02-13T11:35:34.413Z,83.90
2023-02-13T11:38:14.821Z,83.90
2023-02-13T11:40:46.424Z,83.80
2023-02-13T11:43:27.050Z,82.40
2023-02-13T11:46:11.694Z,83.70
2023-02-13T11:48:39.648Z,83.20
2023-02-13T11:51:07.104Z,83.70
2023-02-13T11:53:40.358Z,83.10
2023-02-13T11:56:11.377Z,83.40
2023-02-13T11:58:39.843Z,82.90
2023-02-13T12:01:11.287Z,83.90
2023-02-13T12:03:41.213Z,82.90
2023-02-13T12:06:16.333Z,82.50
2023-02-13T12:08:48.510Z,83.60
2023-02-13T12:11:26.548Z,83.70
2023-02-13T12:13:54.630Z,83.10
2023-02-13T12:16:38.592Z,83.30
2023-02-13T12:19:16.715Z,83.50
2023-02-13T12:21:54.474Z,82.80
2023-02-13T12:24:25.477Z,82.60
2023-02-13T12:27:17.976Z,83.10
2023-02-13T12:30:06.014Z,83.30
2023-02-13T12:32:56.264Z,82.40
2023-02-13T12:35:37.531Z,81.20
2023-02-13T12:38:21.817Z,81.20
2023-02-13T12:40:54.302Z,79.90
2023-02-13T12:43:53.762Z,78.90
2023-02-13T12:46:35.023Z,78.80
2023-02-13T12:49:43.348Z,78.90
2023-02-13T12:52:39.237Z,78.50
2023-02-13T12:55:29.001Z,77.80
2023-02-13T12:58:30.205Z,78.20
2023-02-13T13:01:23.200Z,77.60
2023-02-13T13:04:06.704Z,77.90
2023-02-13T13:07:10.824Z,77.10
2023-02-13T13:10:02.206Z,75.10
2023-02-13T13:15:47.146Z,72.60
2023-02-13T13:18:33.858Z,72.70
2023-02-13T13:21:28.502Z,72.50
2023-02-13T13:24:06.441Z,72.40
2023-02-13T13:26:37.571Z,72.50
2023-02-13T13:29:21.773Z,70.60
2023-02-13T13:31:53.790Z,71.00
2023-02-13T13:34:24.809Z,71.00
2023-02-13T13:37:12.058Z,69.20
2023-02-13T13:39:49.561Z,70.70
2023-02-13T13:42:21.113Z,69.70
2023-02-13T13:45:07.088Z,66.90
2023-02-13T13:48:02.924Z,66.50
2023-02-13T13:50:35.238Z,66.60
2023-02-13T13:53:12.253Z,64.80
2023-02-13T13:55:58.903Z,64.70
2023-02-13T13:58:50.581Z,63.50
2023-02-13T14:01:25.760Z,62.70
2023-02-13T14:04:05.168Z,62.00
2023-02-13T14:06:48.888Z,60.70
2023-02-13T14:09:43.774Z,60.70
2023-02-13T14:12:34.341Z,60.60
2023-02-13T14:15:02.909Z,58.50
2023-02-13T14:17:46.841Z,58.20
2023-02-13T14:20:31.117Z,57.60
2023-02-13T14:23:17.728Z,55.50
2023-02-13T14:25:46.623Z,53.00
2023-02-13T14:28:26.821Z,52.50
2023-02-13T14:30:58.811Z,51.40
2023-02-13T14:33:30.460Z,49.00
2023-02-13T14:36:07.660Z,45.50
2023-02-13T14:38:36.881Z,44.70
2023-02-13T14:41:06.508Z,43.50
2023-02-13T14:43:47.735Z,41.80
2023-02-13T14:46:41.591Z,40.80
2023-02-13T14:49:18.850Z,39.80
2023-02-13T14:51:50.571Z,39.00
2023-02-13T14:54:46.669Z,38.00
2023-02-13T14:57:20.790Z,37.00
2023-02-13T14:59:53.130Z,36.50
2023-02-13T15:02:47.287Z,36.60
2023-02-13T15:05:19.790Z,36.00
2023-02-13T15:07:51.061Z,34.80
2023-02-13T15:10:43.041Z,34.10
2023-02-13T15:13:18.687Z,34.60
2023-02-13T15:15:49.165Z,34.00
2023-02-13T15:18:21.424Z,33.80
2023-02-13T15:20:49.538Z,33.10
2023-02-13T15:23:29.920Z,33.30
2023-02-13T15:26:01.877Z,33.70
2023-02-13T15:28:30.526Z,33.90
2023-02-13T15:31:01.949Z,32.90
2023-02-13T15:33:50.672Z,33.90
2023-02-13T15:36:26.883Z,35.40
2023-02-13T15:39:09.257Z,34.20
2023-02-13T15:41:39.306Z,34.90
2023-02-13T15:44:08.364Z,35.40
2023-02-13T15:46:42.300Z,35.30
2023-02-13T15:49:16.696Z,34.70
2023-02-13T15:51:46.564Z,35.20
2023-02-13T15:54:32.900Z,35.30
2023-02-13T15:57:04.881Z,34.90
2023-02-13T15:59:36.441Z,35.30
2023-02-13T16:02:08.016Z,36.30
2023-02-13T16:04:36.498Z,37.20
2023-02-13T16:07:04.646Z,38.80
2023-02-13T16:09:35.708Z,40.00
2023-02-13T16:12:22.541Z,40.70
2023-02-13T16:15:05.347Z,41.30
2023-02-13T16:17:38.796Z,41.70
2023-02-13T16:20:13.317Z,42.20
2023-02-13T16:22:42.602Z,43.00
2023-02-13T16:25:16.901Z,43.50
2023-02-13T16:27:51.198Z,44.60
2023-02-13T16:30:37.576Z,46.00
2023-02-13T16:33:15.517Z,51.90
2023-02-13T16:35:46.592Z,52.20
2023-02-13T16:38:40.087Z,50.40
2023-02-13T16:41:26.238Z,50.30
2023-02-13T16:44:09.856Z,50.90
2023-02-13T16:46:40.095Z,51.40
2023-02-13T16:49:14.614Z,52.30
2023-02-13T16:51:52.256Z,53.00
2023-02-13T16:54:35.762Z,54.10
2023-02-13T16:57:21.978Z,55.10
2023-02-13T17:00:02.818Z,55.80
2023-02-13T17:02:38.577Z,56.60
2023-02-13T17:05:13.565Z,57.20
2023-02-13T17:07:51.810Z,58.00
2023-02-13T17:10:23.041Z,58.40
2023-02-13T17:12:52.490Z,59.00
2023-02-13T17:15:23.344Z,59.50
2023-02-13T17:17:51.963Z,59.90
2023-02-13T17:20:23.500Z,60.50
2023-02-13T17:22:55.587Z,61.00
2023-02-13T17:25:34.916Z,61.80
2023-02-13T17:28:15.530Z,62.20
2023-02-13T17:30:46.437Z,62.60
2023-02-13T17:33:17.724Z,63.00
2023-02-13T17:35:48.354Z,63.80
2023-02-13T17:38:16.836Z,64.90
2023-02-13T17:40:46.037Z,65.20
2023-02-13T17:43:16.031Z,65.80
2023-02-13T17:45:44.227Z,66.30
2023-02-13T17:48:12.371Z,66.70
2023-02-13T17:50:40.316Z,67.20
2023-02-13T17:53:11.156Z,67.90
2023-02-13T17:55:40.627Z,68.30
2023-02-13T17:58:07.752Z,68.70
2023-02-13T18:00:35.824Z,68.90
2023-02-13T18:03:03.594Z,69.40
2023-02-13T18:05:33.514Z,69.50
2023-02-13T18:08:04.518Z,69.70
2023-02-13T18:10:35.507Z,70.30
2023-02-13T18:13:05.003Z,70.70
2023-02-13T18:15:39.805Z,71.30
2023-02-13T18:18:08.297Z,71.20
2023-02-13T18:20:41.088Z,71.60
2023-02-13T18:23:09.764Z,72.20
2023-02-13T18:25:40.967Z,72.60
2023-02-13T18:28:08.625Z,73.00
2023-02-13T18:30:36.419Z,73.30
2023-02-13T18:33:06.156Z,73.60
2023-02-13T18:35:56.757Z,74.20
2023-02-13T18:38:24.754Z,75.60
2023-02-13T18:40:53.641Z,76.20
2023-02-13T18:43:21.256Z,75.90
2023-02-13T18:45:49.190Z,75.90
2023-02-13T18:48:16.778Z,76.60
2023-02-13T18:50:44.638Z,77.00
2023-02-13T18:53:12.199Z,76.90
2023-02-13T18:55:40.474Z,77.20
2023-02-13T18:58:09.287Z,78.00
2023-02-13T19:00:37.347Z,78.40
2023-02-13T19:03:05.600Z,78.70
2023-02-13T19:05:41.267Z,79.10
2023-02-13T19:08:09.802Z,79.30
2023-02-13T19:10:37.844Z,79.50
2023-02-13T19:13:06.247Z,79.90
2023-02-13T19:15:36.727Z,80.20
2023-02-13T19:18:05.185Z,80.80
2023-02-13T19:20:33.278Z,80.60
2023-02-13T19:23:07.699Z,80.70
2023-02-13T19:25:39.683Z,81.30
2023-02-13T19:28:07.941Z,81.50
2023-02-13T19:30:37.865Z,82.10
2023-02-13T19:33:06.132Z,82.40
2023-02-13T19:35:41.178Z,82.30
2023-02-13T19:38:09.113Z,82.80
2023-02-13T19:40:37.640Z,83.20
2023-02-13T19:43:05.522Z,83.30
2023-02-13T19:45:34.170Z,83.60
2023-02-13T19:48:02.015Z,83.90
2023-02-13T19:50:30.110Z,83.80
2023-02-13T19:52:59.195Z,84.20
2023-02-13T19:55:27.700Z,84.50
2023-02-13T19:58:12.863Z,85.20
2023-02-13T20:00:41.135Z,85.10
2023-02-13T20:03:10.616Z,85.50
2023-02-13T20:05:42.248Z,85.80
2023-02-13T20:08:11.428Z,85.90
2023-02-13T20:10:44.952Z,86.90
2023-02-13T20:13:12.778Z,86.20
2023-02-13T20:15:41.854Z,86.70
2023-02-13T20:18:10.290Z,86.70
2023-02-13T20:20:40.249Z,86.80
2023-02-13T20:23:07.864Z,86.80
2023-02-13T20:25:36.245Z,87.00
2023-02-13T20:28:04.457Z,87.10
2023-02-13T20:30:32.728Z,87.20
2023-02-13T20:33:00.710Z,87.50
2023-02-13T20:35:29.102Z,87.80
2023-02-13T20:38:01.610Z,88.10
2023-02-13T20:40:30.082Z,88.80
2023-02-13T20:42:57.749Z,89.90
2023-02-13T20:45:26.093Z,89.40
2023-02-13T20:47:53.644Z,89.20
2023-02-13T20:50:21.711Z,89.40
2023-02-13T20:52:49.677Z,89.40
2023-02-13T20:55:17.756Z,89.30
2023-02-13T20:57:46.232Z,89.40
2023-02-13T21:00:15.302Z,89.40
2023-02-13T21:02:43.702Z,89.60
2023-02-13T21:05:11.522Z,89.80
2023-02-13T21:07:39.536Z,90.00
2023-02-13T21:10:08.193Z,90.00
2023-02-13T21:12:36.246Z,90.20
2023-02-13T21:15:04.624Z,90.60
2023-02-13T21:17:32.456Z,90.30
2023-02-13T21:20:00.115Z,90.30
2023-02-13T21:22:28.375Z,90.30
2023-02-13T21:24:59.821Z,90.40
2023-02-13T21:27:28.757Z,90.50
2023-02-13T21:29:56.774Z,90.70
2023-02-13T21:32:24.900Z,90.70
2023-02-13T21:34:55.406Z,90.70
2023-02-13T21:37:23.563Z,90.60
2023-02-13T21:39:51.226Z,90.70
2023-02-13T21:42:19.502Z,90.80
2023-02-13T21:44:47.716Z,90.80
2023-02-13T21:47:16.558Z,91.00
2023-02-13T21:49:47.937Z,91.00
2023-02-13T21:52:16.031Z,91.00
2023-02-13T21:54:50.706Z,91.20
2023-02-13T21:57:18.563Z,91.30
2023-02-13T21:59:46.350Z,91.40
2023-02-13T22:02:15.053Z,91.40
2023-02-13T22:04:43.485Z,91.60
2023-02-13T22:07:11.922Z,91.50
2023-02-13T22:09:40.183Z,91.50
2023-02-13T22:12:08.253Z,91.70
2023-02-13T22:14:36.172Z,91.80
2023-02-13T22:17:04.000Z,91.90
2023-02-13T22:19:33.184Z,92.00
2023-02-13T22:22:07.909Z,92.00
2023-02-13T22:24:35.658Z,92.20
2023-02-13T22:27:05.470Z,92.40
2023-02-13T22:29:33.249Z,92.30
2023-02-13T22:32:01.646Z,92.50
2023-02-13T22:34:29.376Z,93.00
2023-02-13T22:36:57.502Z,92.80
2023-02-13T22:39:25.818Z,92.80
2023-02-13T22:42:02.252Z,92.80
2023-02-13T22:44:30.201Z,92.90
2023-02-13T22:46:58.227Z,92.90
2023-02-13T22:49:26.218Z,93.00
2023-02-13T22:51:54.361Z,93.10
2023-02-13T22:54:21.944Z,93.40
2023-02-13T22:56:50.845Z,93.40
2023-02-13T22:59:18.613Z,93.40
2023-02-13T23:01:48.554Z,93.40
2023-02-13T23:04:16.584Z,93.40
2023-02-13T23:09:29.515Z,93.50
2023-02-13T23:12:16.231Z,93.40
2023-02-13T23:14:44.109Z,93.60
2023-02-13T23:17:30.778Z,93.60
2023-02-13T23:19:58.524Z,93.80
2023-02-13T23:22:27.815Z,93.90
2023-02-13T23:24:55.528Z,93.90
2023-02-13T23:27:23.806Z,93.80
2023-02-13T23:29:51.523Z,93.80
2023-02-13T23:32:22.939Z,93.80
2023-02-13T23:34:51.895Z,93.80
2023-02-13T23:37:20.291Z,93.80
2023-02-13T23:39:48.201Z,93.90
2023-02-13T23:42:19.842Z,93.90
2023-02-13T23:44:47.271Z,93.80
2023-02-13T23:47:15.340Z,93.60
2023-02-13T23:49:43.002Z,93.90
2023-02-13T23:52:11.508Z,93.90
2023-02-13T23:54:42.843Z,93.80
2023-02-13T23:57:11.414Z,94.00
2023-02-13T23:59:39.858Z,93.90
